Time;durP1;ratioP1;P1;durP2;ratioP2;P2;SDS_P1;SDS_P2;PMS_P1;PMS_P2;Temp;Humidity;BMP_temperature;BMP_pressure;BME280_temperature;BME280_humidity;BME280_pressure;Samples;Min_cycle;Max_cycle;Signal;HPM_P1;HPM_P2
2022/06/24 00:02:12;;;;;;;4.05;1.80;;;;;;;20.34;48.80;99805.47;4459175;32;34172;-87
2022/06/24 00:04:40;;;;;;;4.45;1.77;;;;;;;18.84;52.51;99816.50;4481535;32;33871;-86
2022/06/24 00:07:15;;;;;;;5.10;1.85;;;;;;;19.78;50.29;99805.16;4479587;32;33493;-85
2022/06/24 00:09:44;;;;;;;3.65;1.87;;;;;;;20.08;49.64;99806.22;4478868;32;34024;-85
2022/06/24 00:12:17;;;;;;;6.07;1.77;;;;;;;19.67;50.53;99814.66;4476237;32;33466;-86
2022/06/24 00:14:56;;;;;;;2.80;1.70;;;;;;;19.21;51.72;99816.88;4478714;32;32171;-86
2022/06/24 00:17:27;;;;;;;5.90;2.28;;;;;;;20.19;49.31;99807.16;4473198;32;33870;-86
2022/06/24 00:19:57;;;;;;;5.40;1.85;;;;;;;20.05;50.25;99811.47;4473412;32;32592;-85
2022/06/24 00:22:26;;;;;;;4.65;2.00;;;;;;;19.08;52.85;99815.00;4477929;32;33854;-86
2022/06/24 00:25:08;;;;;;;4.85;1.65;;;;;;;18.83;53.43;99815.63;4476409;32;33396;-84
2022/06/24 00:27:37;;;;;;;3.78;1.77;;;;;;;19.69;51.26;99820.81;4473672;32;33435;-85
2022/06/24 00:30:18;;;;;;;6.18;1.92;;;;;;;19.31;52.65;99823.97;4478640;32;33404;-87
2022/06/24 00:32:45;;;;;;;6.43;2.10;;;;;;;18.56;56.13;99820.47;4477825;32;33505;-86
2022/06/24 00:35:17;;;;;;;4.12;2.10;;;;;;;18.90;54.38;99824.44;4476246;32;34430;-85
2022/06/24 00:37:46;;;;;;;6.15;2.12;;;;;;;19.52;52.76;99822.41;4460874;32;33871;-86
2022/06/24 00:40:14;;;;;;;4.60;1.92;;;;;;;19.39;53.40;99819.69;4468299;32;34656;-87
2022/06/24 00:42:43;;;;;;;5.10;2.10;;;;;;;19.61;53.26;99819.88;4474794;31;34262;-87
2022/06/24 00:45:25;;;;;;;5.75;2.22;;;;;;;19.60;52.89;99818.97;4477048;31;33769;-86
2022/06/24 00:47:55;;;;;;;6.28;2.10;;;;;;;19.73;52.36;99809.50;4481221;31;34794;-86
2022/06/24 00:50:28;;;;;;;6.62;2.15;;;;;;;19.76;52.29;99809.53;4462441;31;32433;-86
2022/06/24 00:52:58;;;;;;;7.60;2.40;;;;;;;19.71;52.40;99813.81;4477298;31;31691;-87
2022/06/24 00:55:36;;;;;;;5.05;2.17;;;;;;;19.40;53.28;99810.06;4477621;31;33354;-86
2022/06/24 00:58:05;;;;;;;4.68;1.90;;;;;;;19.79;52.02;99809.53;4473509;31;33710;-86
2022/06/24 01:00:34;;;;;;;4.72;2.15;;;;;;;19.80;52.48;99800.78;4474222;31;33118;-87
2022/06/24 01:03:03;;;;;;;7.37;2.35;;;;;;;19.79;52.55;99799.00;4491738;31;33108;-85
2022/06/24 01:05:32;;;;;;;5.35;2.08;;;;;;;19.89;52.30;99802.59;4477563;31;33877;-85
2022/06/24 01:08:08;;;;;;;4.18;2.00;;;;;;;19.87;52.51;99793.81;4478438;31;34883;-85
2022/06/24 01:10:37;;;;;;;3.90;2.08;;;;;;;19.82;52.98;99800.81;4461038;31;33274;-85
2022/06/24 01:13:09;;;;;;;7.20;2.22;;;;;;;19.66;53.00;99789.25;4471442;31;33398;-85
2022/06/24 01:15:37;;;;;;;5.62;2.10;;;;;;;19.55;53.21;99801.44;4474244;31;31359;-85
2022/06/24 01:18:06;;;;;;;5.72;2.20;;;;;;;19.74;52.67;99798.13;4473809;31;31950;-86
2022/06/24 01:20:33;;;;;;;5.87;2.25;;;;;;;19.25;54.05;99797.66;4465875;31;34597;-86
2022/06/24 01:23:01;;;;;;;7.07;2.60;;;;;;;19.24;54.22;99796.78;4466574;31;31603;-87
2022/06/24 01:25:31;;;;;;;5.30;2.33;;;;;;;19.29;54.18;99799.44;4460578;31;31987;-87
2022/06/24 01:27:59;;;;;;;8.43;2.47;;;;;;;18.72;55.40;99804.06;4459552;31;33719;-86
2022/06/24 01:30:28;;;;;;;4.82;2.28;;;;;;;18.79;55.18;99798.00;4460613;31;33523;-86
2022/06/24 01:32:55;;;;;;;5.80;2.65;;;;;;;19.20;54.06;99797.63;4464353;31;34177;-85
2022/06/24 01:35:23;;;;;;;5.57;2.62;;;;;;;19.38;53.62;99802.16;4460076;31;32556;-86
2022/06/24 01:37:51;;;;;;;8.00;2.33;;;;;;;19.31;54.43;99795.06;4480072;31;33923;-86
2022/06/24 01:40:18;;;;;;;5.15;2.35;;;;;;;19.22;55.01;99795.03;4477725;31;32351;-86
2022/06/24 01:42:46;;;;;;;8.90;2.58;;;;;;;19.55;54.06;99785.69;4476880;31;33910;-86
2022/06/24 01:45:13;;;;;;;5.87;2.10;;;;;;;19.53;53.37;99783.03;4473400;31;34025;-86
2022/06/24 01:47:41;;;;;;;10.93;2.42;;;;;;;19.61;53.13;99785.72;4473598;31;34539;-88
2022/06/24 01:50:08;;;;;;;7.35;2.65;;;;;;;19.62;52.87;99787.47;4472323;32;34658;-86
2022/06/24 01:52:36;;;;;;;5.25;2.87;;;;;;;19.31;53.71;99792.44;4490694;31;33927;-86
2022/06/24 01:55:04;;;;;;;7.37;2.83;;;;;;;19.72;52.34;99783.19;4468669;32;34287;-86
2022/06/24 01:57:32;;;;;;;6.55;2.55;;;;;;;19.21;53.48;99785.38;4480604;31;33761;-86
2022/06/24 02:00:00;;;;;;;6.55;2.60;;;;;;;19.49;52.67;99780.34;4477975;31;33906;-86
2022/06/24 02:02:28;;;;;;;9.10;3.20;;;;;;;18.11;57.43;99780.56;4476316;31;33024;-87
2022/06/24 02:04:56;;;;;;;6.97;2.75;;;;;;;18.78;55.54;99787.53;4490383;31;33945;-86
2022/06/24 02:07:24;;;;;;;30.62;5.55;;;;;;;18.80;55.08;99783.19;4498452;31;33958;-86
2022/06/24 02:15:24;;;;;;;5.35;2.60;;;;;;;18.66;57.06;99788.25;4471843;32;33004;-86
2022/06/24 02:17:52;;;;;;;5.45;3.22;;;;;;;19.23;54.87;99783.62;4478000;31;33400;-87
2022/06/24 02:20:19;;;;;;;5.90;2.67;;;;;;;19.04;55.47;99788.72;4490328;31;34562;-87
2022/06/24 02:22:47;;;;;;;5.35;2.30;;;;;;;19.33;54.24;99774.97;4495386;31;33391;-88
2022/06/24 02:25:15;;;;;;;5.15;2.83;;;;;;;19.48;53.33;99781.22;4484720;31;33671;-86
2022/06/24 02:27:42;;;;;;;6.03;2.62;;;;;;;19.64;52.80;99770.88;4461923;31;33223;-86
2022/06/24 02:30:10;;;;;;;6.85;2.80;;;;;;;19.40;53.46;99781.16;4476489;31;33772;-86
2022/06/24 02:32:38;;;;;;;6.18;2.75;;;;;;;19.40;53.33;99781.16;4492372;31;33422;-87
2022/06/24 02:35:10;;;;;;;6.12;2.78;;;;;;;19.18;53.68;99790.56;4473369;31;32655;-86
2022/06/24 02:37:37;;;;;;;7.12;2.62;;;;;;;19.24;53.05;99790.66;4494292;31;34523;-87
2022/06/24 02:42:58;;;;;;;7.60;2.83;;;;;;;18.23;56.54;99791.22;4491825;31;33132;-86
2022/06/24 02:45:26;;;;;;;5.57;2.80;;;;;;;19.14;53.58;99799.28;4477178;31;35285;-86
2022/06/24 02:47:53;;;;;;;5.07;2.62;;;;;;;19.38;52.43;99794.28;4479526;31;32105;-86
2022/06/24 02:50:21;;;;;;;6.50;3.12;;;;;;;19.18;52.95;99795.81;4480635;31;32656;-86
2022/06/24 02:52:48;;;;;;;5.78;2.25;;;;;;;19.29;52.76;99786.31;4494505;31;33332;-86
2022/06/24 02:55:16;;;;;;;9.00;2.92;;;;;;;19.20;53.33;99783.59;4496805;31;34654;-86
2022/06/24 02:57:43;;;;;;;6.22;2.70;;;;;;;19.43;52.20;99796.94;4467507;31;32193;-86
2022/06/24 03:00:12;;;;;;;5.15;2.75;;;;;;;18.65;53.99;99791.75;4494506;31;33588;-86
2022/06/24 03:02:39;;;;;;;7.70;2.60;;;;;;;18.01;57.08;99791.78;4494540;31;32858;-86
2022/06/24 03:05:12;;;;;;;5.53;2.70;;;;;;;17.75;59.90;99793.94;4475324;31;33242;-86
2022/06/24 03:07:39;;;;;;;5.97;2.83;;;;;;;17.78;58.81;99792.28;4478378;31;34693;-86
2022/06/24 03:10:07;;;;;;;5.57;2.87;;;;;;;17.48;61.67;99801.41;4475969;31;34055;-86
2022/06/24 03:12:35;;;;;;;6.50;3.00;;;;;;;17.61;60.78;99801.59;4474964;31;32637;-86
2022/06/24 03:15:03;;;;;;;7.82;3.00;;;;;;;18.50;57.18;99800.28;4480697;31;33440;-86
2022/06/24 03:17:30;;;;;;;13.60;3.95;;;;;;;18.63;56.75;99802.22;4479636;31;33532;-86
2022/06/24 03:19:59;;;;;;;12.90;3.92;;;;;;;18.94;55.88;99801.72;4482808;31;33290;-86
2022/06/24 03:22:26;;;;;;;13.80;2.97;;;;;;;18.95;56.10;99799.12;4495276;31;33179;-86
2022/06/24 03:24:54;;;;;;;26.23;3.72;;;;;;;19.16;55.25;99802.81;4487602;31;34499;-86
2022/06/24 03:27:22;;;;;;;8.30;2.87;;;;;;;19.50;53.87;99801.38;4480400;31;33693;-86
2022/06/24 03:29:50;;;;;;;7.45;3.05;;;;;;;19.25;53.91;99802.91;4494753;31;33763;-85
2022/06/24 03:32:18;;;;;;;6.85;2.70;;;;;;;19.30;54.04;99800.34;4488293;31;34398;-86
2022/06/24 03:34:46;;;;;;;6.07;2.58;;;;;;;18.99;52.49;99795.66;4480137;32;33779;-86
2022/06/24 03:37:13;;;;;;;6.28;3.10;;;;;;;19.60;51.85;99792.69;4488296;31;34342;-86
2022/06/24 03:39:41;;;;;;;6.40;2.45;;;;;;;19.61;51.87;99790.97;4474840;31;32578;-86
2022/06/24 03:42:08;;;;;;;6.07;2.40;;;;;;;19.84;51.23;99792.06;4462801;31;33130;-86
2022/06/24 03:44:36;;;;;;;5.70;2.97;;;;;;;19.68;51.35;99790.13;4467001;31;33897;-86
2022/06/24 03:47:11;;;;;;;5.20;2.47;;;;;;;19.65;51.67;99793.63;4482379;31;34656;-86
2022/06/24 03:49:39;;;;;;;6.00;2.83;;;;;;;20.02;49.74;99788.66;4494993;31;34346;-86
2022/06/24 03:52:07;;;;;;;5.78;2.80;;;;;;;20.06;49.93;99800.06;4494318;31;33393;-86
2022/06/24 03:54:35;;;;;;;4.85;2.45;;;;;;;19.97;49.78;99805.25;4468179;31;33612;-86
2022/06/24 03:57:03;;;;;;;6.60;2.55;;;;;;;20.00;49.44;99803.53;4493382;31;33558;-86
2022/06/24 03:59:30;;;;;;;4.37;2.20;;;;;;;20.41;48.31;99802.03;4484105;31;33648;-85
2022/06/24 04:01:58;;;;;;;4.47;2.75;;;;;;;20.43;48.91;99803.78;4475546;31;34107;-86
2022/06/24 04:04:26;;;;;;;5.85;2.53;;;;;;;20.52;48.86;99805.59;4487680;31;33865;-85
2022/06/24 04:06:53;;;;;;;7.20;2.70;;;;;;;20.71;48.11;99810.97;4457816;31;33577;-87
2022/06/24 04:09:22;;;;;;;6.30;2.40;;;;;;;20.78;48.45;99812.72;4490424;31;33441;-87
2022/06/24 04:11:49;;;;;;;5.97;2.28;;;;;;;20.89;47.83;99805.75;4489760;31;33936;-87
2022/06/24 04:17:08;;;;;;;6.85;2.17;;;;;;;20.89;47.38;99808.38;4446369;31;32433;-85
2022/06/24 04:19:36;;;;;;;4.87;2.42;;;;;;;20.87;46.79;99818.03;4477932;31;34218;-86
2022/06/24 04:22:04;;;;;;;5.10;2.37;;;;;;;21.14;45.98;99816.34;4491640;31;33571;-87
2022/06/24 04:24:31;;;;;;;3.62;2.00;;;;;;;21.06;46.10;99820.72;4478924;31;33799;-86
2022/06/24 04:26:59;;;;;;;5.30;2.60;;;;;;;21.00;46.26;99814.56;4491885;31;33939;-87
2022/06/24 04:29:26;;;;;;;8.07;2.97;;;;;;;20.84;47.00;99814.50;4498823;31;33811;-86
2022/06/24 04:31:54;;;;;;;5.82;2.40;;;;;;;21.29;45.86;99812.88;4489564;31;33410;-86
2022/06/24 04:34:24;;;;;;;7.50;2.40;;;;;;;21.29;45.69;99811.09;4488780;31;34004;-85
2022/06/24 04:36:52;;;;;;;6.20;2.42;;;;;;;21.70;44.85;99812.91;4469661;31;34041;-86
2022/06/24 04:39:19;;;;;;;4.82;2.30;;;;;;;21.76;44.47;99823.44;4477274;32;33364;-87
2022/06/24 04:41:47;;;;;;;4.90;2.62;;;;;;;21.33;45.08;99818.13;4487438;31;33192;-87
2022/06/24 04:44:14;;;;;;;5.95;2.45;;;;;;;21.54;44.78;99819.94;4488861;31;34599;-85
2022/06/24 04:46:42;;;;;;;5.32;2.47;;;;;;;21.74;44.96;99814.66;4451857;31;33309;-84
2022/06/24 04:49:10;;;;;;;5.30;2.22;;;;;;;21.77;44.81;99803.25;4465751;31;33123;-86
2022/06/24 04:51:37;;;;;;;4.25;2.15;;;;;;;21.91;44.18;99812.00;4479282;31;31665;-85
2022/06/24 04:54:05;;;;;;;8.38;2.50;;;;;;;21.63;44.97;99811.16;4480694;31;33911;-85
2022/06/24 04:56:32;;;;;;;10.68;2.45;;;;;;;21.93;44.70;99815.53;4456429;32;34100;-85
2022/06/24 04:59:00;;;;;;;5.22;2.20;;;;;;;21.95;44.50;99820.81;4493694;31;33758;-87
2022/06/24 05:01:29;;;;;;;6.82;2.22;;;;;;;22.17;42.97;99814.62;4489723;31;34944;-86
2022/06/24 05:04:00;;;;;;;4.78;2.10;;;;;;;22.38;42.56;99823.38;4478342;31;33818;-89
2022/06/24 05:06:28;;;;;;;7.12;1.80;;;;;;;22.72;41.93;99823.28;4465072;31;33845;-87
2022/06/24 05:08:56;;;;;;;4.72;2.37;;;;;;;22.40;42.18;99818.97;4493829;31;33867;-87
2022/06/24 05:11:24;;;;;;;4.97;2.10;;;;;;;22.77;41.51;99829.38;4485240;31;33443;-84
2022/06/24 05:13:51;;;;;;;6.25;2.22;;;;;;;22.85;41.11;99814.41;4496769;31;34639;-85
2022/06/24 05:16:19;;;;;;;5.68;1.87;;;;;;;22.89;40.93;99815.25;4460168;31;32334;-88
2022/06/24 05:19:07;;;;;;;4.87;1.77;;;;;;;22.54;41.39;99818.91;4477684;31;33572;-89
2022/06/24 05:21:35;;;;;;;5.62;2.00;;;;;;;22.86;40.46;99821.44;4470446;31;32817;-87
2022/06/24 05:24:03;;;;;;;4.20;1.60;;;;;;;23.14;39.75;99821.28;4479280;31;34555;-86
2022/06/24 05:26:31;;;;;;;4.37;1.83;;;;;;;22.77;40.13;99821.47;4489212;31;33806;-88
2022/06/24 05:28:58;;;;;;;4.68;1.92;;;;;;;22.94;40.34;99826.66;4465311;31;33816;-88
2022/06/24 05:31:26;;;;;;;4.37;2.22;;;;;;;23.08;40.09;99826.63;4480698;31;33127;-87
2022/06/24 05:33:53;;;;;;;4.60;2.35;;;;;;;23.40;40.11;99823.78;4482507;31;33584;-85
2022/06/24 05:36:21;;;;;;;6.18;2.20;;;;;;;22.97;40.16;99824.91;4467166;32;33262;-87
2022/06/24 05:38:50;;;;;;;7.53;2.40;;;;;;;23.30;39.71;99825.59;4451379;31;32843;-88
2022/06/24 05:41:18;;;;;;;5.25;2.12;;;;;;;23.34;39.73;99835.28;4475664;31;33265;-84
2022/06/24 05:43:46;;;;;;;5.62;2.20;;;;;;;23.14;39.64;99837.16;4490005;31;33812;-86
2022/06/24 05:46:14;;;;;;;5.12;2.20;;;;;;;23.48;39.48;99839.59;4482883;31;34615;-85
2022/06/24 05:48:41;;;;;;;3.97;2.25;;;;;;;23.67;38.83;99843.84;4478730;31;33370;-85
2022/06/24 05:51:11;;;;;;;5.78;2.22;;;;;;;23.40;39.84;99844.94;4468903;31;31721;-87
2022/06/24 05:56:26;;;;;;;5.10;2.12;;;;;;;23.47;38.83;99840.47;4487035;31;32450;-85
2022/06/24 05:58:54;;;;;;;7.20;2.20;;;;;;;23.62;38.74;99835.06;4470840;31;34424;-85
2022/06/24 06:01:22;;;;;;;3.10;1.95;;;;;;;24.25;37.63;99836.28;4477783;31;33100;-86
2022/06/24 06:03:50;;;;;;;5.60;2.00;;;;;;;24.42;37.90;99839.63;4475020;31;33225;-85
2022/06/24 06:06:18;;;;;;;5.85;2.20;;;;;;;24.44;37.49;99839.63;4455488;31;32257;-86
2022/06/24 06:08:45;;;;;;;4.32;2.00;;;;;;;24.51;37.93;99833.37;4470653;31;33539;-87
2022/06/24 06:11:19;;;;;;;6.00;2.15;;;;;;;24.47;38.01;99831.63;4495178;31;33650;-86
2022/06/24 06:13:48;;;;;;;5.95;2.22;;;;;;;24.80;37.06;99833.03;4482285;31;34700;-87
2022/06/24 06:16:16;;;;;;;7.20;2.28;;;;;;;24.66;37.28;99827.03;4479562;31;34824;-88
2022/06/24 06:18:44;;;;;;;5.62;2.00;;;;;;;24.68;37.29;99825.22;4469951;31;31984;-85
2022/06/24 06:21:12;;;;;;;4.68;2.20;;;;;;;24.83;36.78;99825.03;4469309;31;31978;-87
2022/06/24 06:23:40;;;;;;;6.18;2.20;;;;;;;24.91;36.93;99828.44;4466257;31;34627;-87
2022/06/24 06:26:09;;;;;;;4.28;2.10;;;;;;;24.84;36.85;99820.59;4479869;31;34655;-88
2022/06/24 06:28:40;;;;;;;6.95;2.30;;;;;;;24.70;37.39;99834.91;4479031;31;34371;-85
2022/06/24 06:31:09;;;;;;;14.75;2.65;;;;;;;25.24;37.11;99820.94;4478043;32;33408;-85
2022/06/24 06:33:37;;;;;;;6.65;2.33;;;;;;;25.20;36.47;99824.53;4471447;31;32556;-87
2022/06/24 06:36:09;;;;;;;4.65;1.98;;;;;;;25.22;36.60;99816.56;4479738;31;34678;-84
2022/06/24 06:38:38;;;;;;;4.60;1.95;;;;;;;25.26;36.97;99813.84;4483682;31;32906;-85
2022/06/24 06:41:15;;;;;;;3.90;2.05;;;;;;;25.23;36.14;99813.91;4483604;31;31718;-84
2022/06/24 06:43:43;;;;;;;4.55;2.03;;;;;;;25.43;36.25;99821.56;4479784;31;33377;-86
2022/06/24 06:46:11;;;;;;;7.35;2.03;;;;;;;25.29;36.18;99819.13;4480799;31;34675;-85
2022/06/24 06:48:39;;;;;;;3.87;2.00;;;;;;;25.63;35.98;99810.63;4473556;31;34493;-88
2022/06/24 06:51:07;;;;;;;4.57;2.00;;;;;;;25.64;35.81;99801.75;4476818;31;34000;-85
2022/06/24 06:53:34;;;;;;;7.70;2.20;;;;;;;25.70;35.51;99809.63;4462870;31;34501;-87
2022/06/24 06:56:02;;;;;;;5.00;2.17;;;;;;;25.85;35.38;99802.31;4470195;31;33562;-87
2022/06/24 06:58:30;;;;;;;5.47;2.40;;;;;;;25.79;35.48;99795.31;4474370;31;32871;-90
2022/06/24 07:00:58;;;;;;;9.48;2.17;;;;;;;25.89;35.33;99804.00;4462991;32;32456;-90
2022/06/24 07:03:25;;;;;;;9.32;2.25;;;;;;;26.16;34.85;99801.78;4456842;31;34072;-85
2022/06/24 07:05:54;;;;;;;6.80;2.12;;;;;;;26.28;34.52;99805.06;4494474;31;34020;-85
2022/06/24 07:08:23;;;;;;;7.03;2.87;;;;;;;26.24;34.49;99805.16;4498474;31;34473;-85
2022/06/24 07:10:50;;;;;;;6.50;2.12;;;;;;;26.65;34.04;99811.44;4489560;31;33234;-86
2022/06/24 07:13:19;;;;;;;8.15;1.98;;;;;;;26.39;33.77;99807.50;4482041;31;34095;-84
2022/06/24 07:15:47;;;;;;;7.00;2.40;;;;;;;26.43;33.36;99800.34;4490090;31;33834;-86
2022/06/24 07:18:15;;;;;;;7.82;2.53;;;;;;;26.79;33.73;99801.41;4474735;31;34324;-87
2022/06/24 07:20:43;;;;;;;6.22;2.08;;;;;;;26.76;34.14;99801.47;4482045;31;33036;-85
2022/06/24 07:23:12;;;;;;;5.07;2.20;;;;;;;26.99;33.34;99811.59;4465886;31;32185;-86
2022/06/24 07:25:40;;;;;;;6.07;1.80;;;;;;;26.99;32.58;99800.09;4468992;31;34564;-84
2022/06/24 07:28:07;;;;;;;4.95;1.90;;;;;;;27.00;32.38;99802.69;4475223;31;34545;-86
2022/06/24 07:30:35;;;;;;;4.45;1.98;;;;;;;27.06;31.78;99796.34;4489144;31;33205;-86
2022/06/24 07:33:03;;;;;;;5.97;2.10;;;;;;;27.45;31.67;99804.34;4450833;31;33390;-87
2022/06/24 07:35:31;;;;;;;5.82;2.10;;;;;;;27.60;31.03;99800.41;4464404;31;33213;-87
2022/06/24 07:38:18;;;;;;;5.18;1.77;;;;;;;27.35;30.96;99808.13;4475549;31;31774;-87
2022/06/24 07:40:47;;;;;;;3.33;1.62;;;;;;;27.74;31.60;99800.06;4472486;31;33223;-87
2022/06/24 07:43:16;;;;;;;4.37;1.77;;;;;;;27.94;30.59;99792.47;4488720;31;33928;-87
2022/06/24 07:45:43;;;;;;;4.20;1.60;;;;;;;28.27;30.48;99787.13;4483426;31;34010;-86
2022/06/24 07:48:11;;;;;;;6.37;1.87;;;;;;;28.04;30.82;99787.78;4474091;31;32828;-87
2022/06/24 07:50:39;;;;;;;4.45;1.95;;;;;;;28.22;29.79;99786.38;4491596;31;33384;-86
2022/06/24 07:53:07;;;;;;;3.80;1.65;;;;;;;28.51;29.43;99782.03;4467633;31;33041;-86
2022/06/24 07:58:22;;;;;;;6.25;2.00;;;;;;;28.83;29.09;99783.75;4494686;31;34041;-86
2022/06/24 08:00:50;;;;;;;4.62;1.83;;;;;;;29.37;28.96;99772.28;4480257;31;34005;-87
2022/06/24 08:03:18;;;;;;;3.65;1.77;;;;;;;29.31;28.22;99777.84;4467055;31;32260;-88
2022/06/24 08:05:45;;;;;;;4.53;1.77;;;;;;;29.75;28.28;99774.63;4494539;31;33882;-87
2022/06/24 08:08:19;;;;;;;5.12;1.92;;;;;;;30.05;26.47;99766.47;4482784;31;34342;-88
2022/06/24 08:10:47;;;;;;;5.28;1.60;;;;;;;29.95;26.22;99769.44;4472499;31;33466;-86
2022/06/24 08:13:15;;;;;;;2.60;1.70;;;;;;;30.02;26.13;99766.56;4488765;31;34426;-87
2022/06/24 08:15:43;;;;;;;6.28;1.85;;;;;;;30.13;26.37;99761.69;4475824;31;33668;-89
2022/06/24 08:18:13;;;;;;;3.62;1.40;;;;;;;30.42;25.86;99765.13;4462604;31;32605;-87
2022/06/24 08:21:04;;;;;;;3.30;1.80;;;;;;;30.49;25.64;99763.97;4410491;32;33625;-87
2022/06/24 08:23:32;;;;;;;3.67;1.60;;;;;;;30.58;25.44;99764.50;4428112;32;33026;-88
2022/06/24 08:26:00;;;;;;;2.75;1.42;;;;;;;29.73;26.27;99763.13;4429273;32;33104;-89
2022/06/24 08:28:27;;;;;;;3.33;1.80;;;;;;;30.34;25.04;99768.09;4444188;32;34549;-87
2022/06/24 08:30:55;;;;;;;3.60;1.50;;;;;;;29.80;25.46;99761.97;4441041;32;33339;-88
2022/06/24 08:33:31;;;;;;;6.45;2.17;;;;;;;30.72;26.40;99763.97;4435348;32;34039;-87
2022/06/24 08:35:59;;;;;;;6.53;2.08;;;;;;;31.09;25.58;99773.22;4427238;32;32750;-89
2022/06/24 08:38:27;;;;;;;5.00;1.85;;;;;;;30.80;24.76;99763.66;4430793;32;33673;-87
2022/06/24 08:40:54;;;;;;;6.10;1.55;;;;;;;30.71;24.53;99759.56;4445085;32;33274;-86
2022/06/24 08:43:22;;;;;;;3.28;1.50;;;;;;;29.85;25.73;99754.69;4448400;32;34480;-89
2022/06/24 08:45:50;;;;;;;4.82;1.80;;;;;;;29.51;26.54;99766.47;4428012;32;32659;-90
2022/06/24 08:48:19;;;;;;;4.32;1.70;;;;;;;30.59;25.89;99768.03;4427123;32;34132;-87
2022/06/24 08:50:47;;;;;;;4.78;1.80;;;;;;;30.96;26.06;99761.28;4424631;32;32496;-87
2022/06/24 08:53:17;;;;;;;4.82;1.65;;;;;;;31.42;24.03;99758.53;4415788;32;32823;-87
2022/06/24 08:55:48;;;;;;;6.05;1.73;;;;;;;31.41;23.85;99749.63;4428978;32;33723;-88
2022/06/24 08:58:18;;;;;;;3.90;1.75;;;;;;;31.44;24.24;99759.34;4462688;31;33861;-87
2022/06/24 09:00:46;;;;;;;3.55;1.70;;;;;;;30.90;24.95;99756.19;4465800;31;33766;-86
2022/06/24 09:03:13;;;;;;;2.87;1.62;;;;;;;31.65;24.61;99755.78;4463908;31;32867;-87
2022/06/24 09:05:42;;;;;;;5.72;1.60;;;;;;;31.97;25.02;99757.97;4495407;31;33628;-88
2022/06/24 09:08:11;;;;;;;6.90;1.60;;;;;;;31.08;24.33;99766.16;4468314;31;32581;-87
2022/06/24 09:10:44;;;;;;;7.62;1.83;;;;;;;31.06;24.42;99751.97;4467155;31;33980;-88
2022/06/24 09:13:22;;;;;;;3.65;1.85;;;;;;;32.02;24.85;99739.94;4461091;31;34511;-89
2022/06/24 09:15:54;;;;;;;3.58;1.62;;;;;;;31.45;25.12;99745.91;4476956;31;34588;-87
2022/06/24 09:18:24;;;;;;;5.93;1.90;;;;;;;32.48;23.82;99744.06;4454990;31;32381;-86
2022/06/24 09:20:57;;;;;;;4.78;1.87;;;;;;;32.79;23.44;99749.81;4478786;31;33599;-88
2022/06/24 09:23:25;;;;;;;4.93;1.87;;;;;;;30.99;24.49;99752.28;4484664;31;31993;-87
2022/06/24 09:25:59;;;;;;;3.60;1.70;;;;;;;31.07;25.00;99759.03;4482337;31;33751;-87
2022/06/24 09:28:32;;;;;;;4.72;1.58;;;;;;;30.61;24.98;99750.13;4474296;31;32490;-88
2022/06/24 09:31:01;;;;;;;2.75;1.52;;;;;;;31.85;23.92;99741.53;4476099;31;33009;-86
2022/06/24 09:33:41;;;;;;;3.42;1.62;;;;;;;32.31;23.06;99743.97;4496305;31;33654;-88
2022/06/24 09:36:11;;;;;;;2.75;1.30;;;;;;;32.94;21.83;99743.72;4479793;31;33855;-88
2022/06/24 09:38:54;;;;;;;3.35;1.52;;;;;;;33.53;21.46;99740.84;4470023;31;33110;-86
2022/06/24 09:41:23;;;;;;;7.30;2.03;;;;;;;33.92;20.94;99740.63;4465953;31;33610;-88
2022/06/24 09:43:52;;;;;;;4.62;1.67;;;;;;;32.90;21.55;99736.75;4468084;31;33893;-88
2022/06/24 09:46:22;;;;;;;4.00;1.60;;;;;;;32.45;22.94;99740.63;4476827;31;33500;-89
2022/06/24 09:48:53;;;;;;;3.42;1.70;;;;;;;31.84;22.42;99739.78;4470937;31;34186;-89
2022/06/24 09:51:22;;;;;;;2.62;1.50;;;;;;;31.53;22.60;99743.78;4467664;31;33006;-88
2022/06/24 09:53:51;;;;;;;2.58;1.52;;;;;;;32.14;22.45;99734.00;4470231;31;35442;-90
2022/06/24 09:56:20;;;;;;;5.78;1.30;;;;;;;32.87;21.62;99742.25;4485671;31;33584;-87
2022/06/24 10:00:40;;;;;;;4.93;1.70;;;;;;;31.64;22.39;99747.81;4479854;31;33934;-88
2022/06/24 10:01:40;;;;;;;2.92;1.40;;;;;;;31.93;22.85;99733.13;4484135;31;33694;-88
2022/06/24 10:04:15;;;;;;;7.37;1.62;;;;;;;31.75;22.84;99732.16;4465948;31;34075;-88
2022/06/24 10:06:48;;;;;;;8.77;1.98;;;;;;;32.82;22.12;99737.13;4461668;31;33916;-88
2022/06/24 10:09:25;;;;;;;4.53;1.50;;;;;;;32.02;22.90;99727.41;4468960;32;32845;-90
2022/06/24 10:11:57;;;;;;;4.28;1.30;;;;;;;31.89;22.67;99721.72;4465539;31;31644;-87
2022/06/24 10:14:27;;;;;;;5.05;1.58;;;;;;;32.60;21.99;99723.88;4482431;31;33334;-87
2022/06/24 10:16:56;;;;;;;5.28;1.23;;;;;;;33.23;21.59;99719.97;4468442;31;34148;-89
2022/06/24 10:19:26;;;;;;;7.75;1.60;;;;;;;33.93;20.78;99714.62;4472811;31;33875;-88
2022/06/24 10:21:53;;;;;;;4.07;1.45;;;;;;;34.30;21.05;99699.19;4486165;31;34017;-88
2022/06/24 10:24:21;;;;;;;4.15;1.80;;;;;;;34.57;19.63;99708.41;4481483;31;34605;-88
2022/06/24 10:26:55;;;;;;;3.08;1.40;;;;;;;32.98;21.46;99709.56;4479710;31;34642;-88
2022/06/24 10:29:26;;;;;;;5.82;1.65;;;;;;;33.63;20.92;99699.16;4481091;31;32546;-89
2022/06/24 10:31:58;;;;;;;8.60;1.58;;;;;;;33.27;22.93;99705.44;4486009;31;33720;-89
2022/06/24 10:34:34;;;;;;;10.52;2.15;;;;;;;34.13;21.22;99698.25;4478771;31;33111;-88
2022/06/24 10:37:09;;;;;;;2.75;1.42;;;;;;;34.74;20.23;99694.03;4483057;31;34309;-88
2022/06/24 10:39:48;;;;;;;3.08;1.35;;;;;;;35.17;19.25;99685.34;4466947;31;34585;-88
2022/06/24 10:42:24;;;;;;;3.00;1.60;;;;;;;33.34;21.44;99680.03;4470016;31;32845;-88
2022/06/24 10:44:58;;;;;;;3.35;1.50;;;;;;;34.24;20.80;99686.97;4476223;31;33453;-91
2022/06/24 10:47:46;;;;;;;4.18;1.50;;;;;;;35.03;20.26;99681.59;4478580;32;33339;-89
2022/06/24 10:50:15;;;;;;;9.32;1.62;;;;;;;35.30;19.92;99680.09;4447213;32;32562;-87
2022/06/24 10:52:51;;;;;;;4.30;1.70;;;;;;;35.50;19.42;99673.50;4482112;32;32856;-87
2022/06/24 10:55:23;;;;;;;3.90;1.55;;;;;;;35.44;19.41;99669.34;4475966;32;33855;-86
2022/06/24 10:58:06;;;;;;;8.82;1.70;;;;;;;35.63;18.73;99674.47;4483702;32;33965;-88
2022/06/24 11:00:36;;;;;;;5.68;1.60;;;;;;;35.18;19.52;99662.84;4474680;32;33733;-88
2022/06/24 11:03:04;;;;;;;5.78;1.40;;;;;;;35.71;19.82;99668.66;4477252;32;34201;-90
2022/06/24 11:05:40;;;;;;;4.00;1.50;;;;;;;35.34;19.59;99666.34;4474477;32;33009;-88
2022/06/24 11:08:18;;;;;;;3.47;1.30;;;;;;;34.08;20.90;99668.09;4471421;32;33931;-87
2022/06/24 11:10:47;;;;;;;2.87;1.45;;;;;;;33.17;21.10;99666.59;4466681;32;33996;-88
2022/06/24 11:13:24;;;;;;;4.72;1.40;;;;;;;34.46;20.66;99662.41;4479905;32;31907;-86
2022/06/24 11:15:58;;;;;;;7.00;1.83;;;;;;;34.44;19.79;99667.03;4447851;32;33002;-89
2022/06/24 11:18:34;;;;;;;3.65;1.58;;;;;;;35.44;19.27;99651.34;4471216;32;32606;-89
2022/06/24 11:21:07;;;;;;;5.50;1.70;;;;;;;35.24;19.14;99649.00;4471617;32;33808;-88
2022/06/24 11:23:37;;;;;;;4.18;1.60;;;;;;;34.33;19.20;99643.44;4481258;32;33783;-87
2022/06/24 11:26:08;;;;;;;3.62;1.40;;;;;;;35.23;19.29;99642.78;4454829;32;32013;-87
2022/06/24 11:28:38;;;;;;;2.78;1.35;;;;;;;34.54;20.46;99641.38;4481802;32;33072;-86
2022/06/24 11:31:29;;;;;;;3.22;1.55;;;;;;;35.36;19.16;99637.50;4478983;32;32757;-89
2022/06/24 11:34:00;;;;;;;6.47;1.50;;;;;;;35.50;18.99;99622.31;4481614;32;32823;-87
2022/06/24 11:36:31;;;;;;;3.10;1.42;;;;;;;35.03;18.94;99624.22;4483106;32;34509;-87
2022/06/24 11:39:09;;;;;;;2.45;1.40;;;;;;;35.23;18.73;99621.22;4474013;31;34800;-88
2022/06/24 11:41:39;;;;;;;3.30;1.50;;;;;;;35.72;18.63;99617.38;4478775;31;34091;-88
2022/06/24 11:44:36;;;;;;;3.92;1.50;;;;;;;35.72;18.86;99617.38;4482820;31;32031;-88
2022/06/24 11:47:05;;;;;;;6.00;1.50;;;;;;;33.62;19.70;99620.37;4475267;31;33658;-87
2022/06/24 11:49:34;;;;;;;4.30;1.40;;;;;;;33.81;18.98;99620.28;4480588;32;34956;-88
2022/06/24 11:52:02;;;;;;;5.93;1.50;;;;;;;33.55;20.86;99626.16;4492664;31;33602;-87
2022/06/24 11:54:30;;;;;;;4.80;1.48;;;;;;;32.96;20.97;99618.41;4483392;31;34018;-88
2022/06/24 11:56:59;;;;;;;5.70;1.62;;;;;;;33.00;20.41;99614.63;4497346;31;34245;-88
2022/06/24 11:59:27;;;;;;;2.60;1.40;;;;;;;33.78;19.84;99612.37;4486277;31;33925;-86
2022/06/24 12:01:55;;;;;;;4.93;1.67;;;;;;;33.77;19.89;99609.78;4489224;31;33850;-89
2022/06/24 12:04:25;;;;;;;3.42;1.50;;;;;;;34.82;19.10;99599.44;4464223;32;33548;-89